Time;durP1;ratioP1;P1;durP2;ratioP2;P2;SDS_P1;SDS_P2;PMS_P1;PMS_P2;Temp;Humidity;BMP_temperature;BMP_pressure;BME280_temperature;BME280_humidity;BME280_pressure;Samples;Min_cycle;Max_cycle;Signal;HPM_P1;HPM_P2
2021/07/18 00:00:24;;;;;;;8.30;3.22;;;19.70;94.40;;;;;;4977675;28;20034;-95
2021/07/18 00:02:50;;;;;;;9.20;4.22;;;19.70;94.50;;;;;;4961596;28;20050;-96
2021/07/18 00:05:15;;;;;;;7.72;4.00;;;19.60;94.70;;;;;;4961847;28;20695;-95
2021/07/18 00:07:41;;;;;;;7.78;3.72;;;19.50;94.90;;;;;;4961464;28;20540;-95
2021/07/18 00:10:07;;;;;;;7.95;4.05;;;19.50;95.20;;;;;;4961315;28;20082;-95
2021/07/18 00:12:33;;;;;;;8.60;4.00;;;19.40;95.40;;;;;;4961303;28;20054;-95
2021/07/18 00:14:59;;;;;;;6.97;3.28;;;19.40;95.70;;;;;;4960967;28;20479;-95
2021/07/18 00:17:24;;;;;;;13.63;4.68;;;19.30;96.00;;;;;;4960820;28;20027;-95
2021/07/18 00:19:50;;;;;;;6.22;3.97;;;19.30;96.30;;;;;;4961349;28;20511;-96
2021/07/18 00:22:17;;;;;;;13.15;4.95;;;19.20;96.50;;;;;;4966501;28;20050;-95
2021/07/18 00:24:42;;;;;;;8.70;4.30;;;19.20;96.80;;;;;;4965770;28;20031;-94
2021/07/18 00:27:08;;;;;;;6.70;4.07;;;19.10;97.10;;;;;;4965258;28;20038;-95
2021/07/18 00:29:34;;;;;;;8.23;4.45;;;19.00;97.40;;;;;;4964291;28;20493;-95
2021/07/18 00:31:59;;;;;;;7.18;3.45;;;19.00;97.70;;;;;;4964261;28;20377;-94
2021/07/18 00:34:25;;;;;;;9.00;3.33;;;18.90;98.00;;;;;;4965369;28;20023;-94
2021/07/18 00:36:51;;;;;;;6.97;3.65;;;18.80;98.30;;;;;;4964102;28;20035;-94
2021/07/18 00:39:16;;;;;;;8.10;3.67;;;18.70;98.80;;;;;;4959377;28;20133;-94
2021/07/18 00:41:43;;;;;;;8.07;3.60;;;18.70;99.20;;;;;;4959756;28;20481;-95
2021/07/18 00:44:10;;;;;;;7.45;3.80;;;18.60;99.50;;;;;;4960222;28;20023;-95
2021/07/18 00:46:36;;;;;;;7.93;3.95;;;18.60;99.70;;;;;;4960589;28;20019;-95
2021/07/18 00:49:02;;;;;;;8.23;3.70;;;18.60;99.90;;;;;;4960137;28;20026;-94
2021/07/18 00:51:28;;;;;;;9.10;4.03;;;18.50;99.90;;;;;;4959841;28;20034;-95
2021/07/18 00:53:57;;;;;;;7.75;3.67;;;18.50;99.90;;;;;;4959699;28;20043;-95
2021/07/18 00:56:23;;;;;;;7.18;4.03;;;18.40;99.90;;;;;;4959546;28;20035;-95
2021/07/18 00:58:53;;;;;;;5.40;3.72;;;18.40;99.90;;;;;;4960321;28;20058;-95
2021/07/18 01:01:20;;;;;;;9.27;4.35;;;18.30;99.90;;;;;;4960737;28;20030;-95
2021/07/18 01:03:46;;;;;;;7.20;3.60;;;18.30;99.90;;;;;;4959471;28;20504;-95
2021/07/18 01:06:12;;;;;;;7.97;4.75;;;18.30;99.90;;;;;;4959343;28;20046;-95
2021/07/18 01:08:37;;;;;;;6.88;3.53;;;18.30;99.90;;;;;;4960074;28;20110;-95
2021/07/18 01:11:03;;;;;;;9.65;3.90;;;18.30;99.90;;;;;;4959987;28;20130;-95
2021/07/18 01:13:29;;;;;;;6.07;4.07;;;18.20;99.90;;;;;;4959771;28;20035;-96
2021/07/18 01:15:54;;;;;;;5.60;4.00;;;18.30;99.90;;;;;;4960057;28;20090;-94
2021/07/18 01:18:20;;;;;;;7.53;3.70;;;18.20;99.90;;;;;;4959716;28;20031;-94
2021/07/18 01:20:47;;;;;;;6.18;3.65;;;18.10;99.90;;;;;;4959537;28;20104;-94
2021/07/18 01:23:13;;;;;;;6.10;3.47;;;18.00;99.90;;;;;;4959887;28;20067;-95
2021/07/18 01:25:39;;;;;;;7.57;3.50;;;18.00;99.90;;;;;;4961249;28;20026;-95
2021/07/18 01:28:07;;;;;;;6.07;3.60;;;18.00;99.90;;;;;;4962174;28;20034;-95
2021/07/18 01:30:33;;;;;;;7.43;4.15;;;17.90;99.90;;;;;;4959684;28;20039;-95
2021/07/18 01:32:59;;;;;;;9.60;4.03;;;17.90;99.90;;;;;;4960643;28;20027;-94
2021/07/18 01:35:27;;;;;;;6.47;3.47;;;17.90;99.90;;;;;;4963738;28;20591;-94
2021/07/18 01:37:52;;;;;;;7.22;3.63;;;17.80;99.90;;;;;;4963091;28;20062;-95
2021/07/18 01:40:18;;;;;;;4.60;3.45;;;17.80;99.90;;;;;;4963357;28;20031;-94
2021/07/18 01:42:44;;;;;;;5.47;3.70;;;17.80;99.90;;;;;;4962668;28;20026;-95
2021/07/18 01:45:10;;;;;;;10.13;4.38;;;17.80;99.90;;;;;;4962999;28;20023;-95
2021/07/18 01:47:36;;;;;;;12.43;4.15;;;17.70;99.90;;;;;;4962763;28;20026;-95
2021/07/18 01:50:07;;;;;;;6.47;3.83;;;17.70;99.90;;;;;;4963226;28;20023;-94
2021/07/18 01:52:33;;;;;;;7.40;4.00;;;17.60;99.90;;;;;;4962691;28;20023;-95
2021/07/18 01:55:00;;;;;;;5.35;4.00;;;17.50;99.90;;;;;;4963232;28;20034;-95
2021/07/18 01:57:26;;;;;;;7.95;4.40;;;17.50;99.90;;;;;;4962468;28;20405;-95
2021/07/18 01:59:52;;;;;;;8.27;5.50;;;17.40;99.90;;;;;;4963195;28;20023;-94
2021/07/18 02:02:17;;;;;;;8.00;4.63;;;17.40;99.90;;;;;;4962665;28;20039;-94
2021/07/18 02:04:46;;;;;;;7.72;6.45;;;17.30;99.90;;;;;;4964342;28;20026;-94
2021/07/18 02:07:12;;;;;;;9.23;5.47;;;17.20;99.90;;;;;;4962759;28;20027;-95
2021/07/18 02:09:37;;;;;;;9.00;5.47;;;17.20;99.90;;;;;;4963169;28;20034;-95
2021/07/18 02:12:07;;;;;;;7.78;5.10;;;17.20;99.90;;;;;;4962436;28;20118;-95
2021/07/18 02:14:34;;;;;;;12.80;5.67;;;17.10;99.90;;;;;;4963534;28;20082;-95
2021/07/18 02:17:00;;;;;;;9.10;5.35;;;17.10;99.90;;;;;;4963354;28;20031;-96
2021/07/18 02:19:30;;;;;;;11.40;5.72;;;17.10;99.90;;;;;;4964501;28;20052;-94
2021/07/18 02:21:56;;;;;;;7.32;4.68;;;17.10;99.90;;;;;;4985145;28;20029;-94
2021/07/18 02:24:22;;;;;;;8.10;5.03;;;17.00;99.90;;;;;;4985095;28;20082;-94
2021/07/18 02:26:48;;;;;;;7.80;5.15;;;17.00;99.90;;;;;;4973334;28;20547;-95
2021/07/18 02:29:13;;;;;;;6.00;4.90;;;16.90;99.90;;;;;;4972057;28;20027;-94
2021/07/18 02:31:40;;;;;;;6.25;4.25;;;16.90;99.90;;;;;;4968752;28;20521;-94
2021/07/18 02:34:06;;;;;;;7.57;4.90;;;16.90;99.90;;;;;;4967903;28;20023;-94
2021/07/18 02:36:33;;;;;;;6.40;3.88;;;16.90;99.90;;;;;;4964986;28;20034;-96
2021/07/18 02:38:59;;;;;;;7.90;4.30;;;17.00;99.90;;;;;;4962304;28;20069;-93
2021/07/18 02:41:26;;;;;;;6.22;3.85;;;16.90;99.90;;;;;;4962350;28;20393;-94
2021/07/18 02:43:52;;;;;;;6.70;4.20;;;16.90;99.90;;;;;;4962863;28;20034;-95
2021/07/18 02:46:20;;;;;;;6.35;3.75;;;16.90;99.90;;;;;;4967098;28;20015;-93
2021/07/18 02:48:46;;;;;;;7.15;3.50;;;16.80;99.90;;;;;;4983384;28;20075;-95
2021/07/18 02:51:12;;;;;;;5.35;4.30;;;16.80;99.90;;;;;;4975273;28;20050;-94
2021/07/18 02:53:38;;;;;;;10.98;4.35;;;16.80;99.90;;;;;;4984037;28;20090;-94
2021/07/18 02:56:04;;;;;;;6.18;3.97;;;16.80;99.90;;;;;;4983858;28;20038;-94
2021/07/18 02:58:30;;;;;;;6.05;4.13;;;16.70;99.90;;;;;;4967345;28;20034;-94
2021/07/18 03:00:55;;;;;;;9.20;4.35;;;16.70;99.90;;;;;;4983774;28;20082;-94
2021/07/18 03:03:21;;;;;;;5.10;3.90;;;16.70;99.90;;;;;;4965703;28;20079;-94
2021/07/18 03:05:47;;;;;;;6.13;4.30;;;16.60;99.90;;;;;;4961478;28;20456;-95
2021/07/18 03:08:13;;;;;;;8.98;4.70;;;16.60;99.90;;;;;;4961579;29;20055;-94
2021/07/18 03:10:39;;;;;;;6.60;4.43;;;16.50;99.90;;;;;;4960657;28;20038;-93
2021/07/18 03:13:05;;;;;;;4.55;3.83;;;16.50;99.90;;;;;;4962822;28;20027;-95
2021/07/18 03:15:31;;;;;;;5.82;3.92;;;16.50;99.90;;;;;;4944911;29;20059;-95
2021/07/18 03:17:57;;;;;;;6.38;4.20;;;16.50;99.90;;;;;;4960224;29;20035;-95
2021/07/18 03:20:23;;;;;;;9.73;4.25;;;16.40;99.90;;;;;;4960788;29;20030;-94
2021/07/18 03:22:50;;;;;;;6.47;4.50;;;16.40;99.90;;;;;;4961573;28;20060;-94
2021/07/18 03:25:17;;;;;;;7.40;4.32;;;16.40;99.90;;;;;;4960475;28;20038;-94
2021/07/18 03:27:44;;;;;;;9.57;4.25;;;16.30;99.90;;;;;;4959482;29;20027;-95
2021/07/18 03:30:12;;;;;;;8.20;4.97;;;16.30;99.90;;;;;;4959297;28;20031;-96
2021/07/18 03:32:38;;;;;;;8.35;5.10;;;16.20;99.90;;;;;;4958569;28;20035;-95
2021/07/18 03:35:08;;;;;;;6.47;4.43;;;16.20;99.90;;;;;;4959859;28;20043;-95
2021/07/18 03:37:35;;;;;;;6.40;4.37;;;16.20;99.90;;;;;;4958599;28;20125;-94
2021/07/18 03:40:01;;;;;;;6.38;4.38;;;16.10;99.90;;;;;;4958969;28;20302;-96
2021/07/18 03:42:27;;;;;;;7.07;4.50;;;16.10;99.90;;;;;;4958803;28;20126;-95
2021/07/18 03:44:52;;;;;;;6.78;4.13;;;16.00;99.90;;;;;;4959387;28;20489;-95
2021/07/18 03:47:18;;;;;;;8.93;4.82;;;16.00;99.90;;;;;;4959254;28;20438;-95
2021/07/18 03:49:44;;;;;;;8.85;4.97;;;15.90;99.90;;;;;;4959171;28;20118;-95
2021/07/18 03:52:11;;;;;;;8.73;4.40;;;15.90;99.90;;;;;;4959030;28;20037;-95
2021/07/18 03:54:36;;;;;;;12.23;4.88;;;15.80;99.90;;;;;;4958793;28;20037;-95
2021/07/18 03:57:02;;;;;;;11.20;5.18;;;15.70;99.90;;;;;;4957608;28;20118;-95
2021/07/18 03:59:28;;;;;;;11.68;4.63;;;15.60;99.90;;;;;;4958108;28;20027;-94
2021/07/18 04:01:54;;;;;;;8.88;4.55;;;15.60;99.90;;;;;;4958456;28;20030;-95
2021/07/18 04:04:19;;;;;;;8.02;4.85;;;15.50;99.90;;;;;;4957743;29;20421;-95
2021/07/18 04:06:45;;;;;;;7.00;4.80;;;15.50;99.90;;;;;;4957475;28;20070;-95
2021/07/18 04:09:10;;;;;;;6.45;4.50;;;15.50;99.90;;;;;;4957810;28;20026;-95
2021/07/18 04:11:36;;;;;;;6.18;4.40;;;15.50;99.90;;;;;;4957184;28;20465;-95
2021/07/18 04:14:02;;;;;;;7.28;4.50;;;15.50;99.90;;;;;;4956928;28;20359;-95
2021/07/18 04:16:28;;;;;;;10.95;4.85;;;15.50;99.90;;;;;;4957473;28;20477;-95
2021/07/18 04:18:53;;;;;;;6.07;4.53;;;15.50;99.90;;;;;;4957506;28;20035;-95
2021/07/18 04:21:19;;;;;;;6.97;4.72;;;15.50;99.90;;;;;;4957896;28;20035;-96
2021/07/18 04:23:48;;;;;;;5.63;4.50;;;15.50;99.90;;;;;;4959397;28;20038;-95
2021/07/18 04:26:14;;;;;;;7.90;4.97;;;15.40;99.90;;;;;;4959048;28;20027;-95
2021/07/18 04:28:40;;;;;;;7.20;5.05;;;15.40;99.90;;;;;;4956771;28;20034;-95
2021/07/18 04:31:06;;;;;;;10.27;5.22;;;15.30;99.90;;;;;;4956789;28;20035;-94
2021/07/18 04:33:31;;;;;;;8.60;4.68;;;15.30;99.90;;;;;;4956855;28;20050;-96
2021/07/18 04:35:57;;;;;;;9.57;4.38;;;15.20;99.90;;;;;;4957041;28;20094;-95
2021/07/18 04:38:22;;;;;;;11.18;5.03;;;15.20;99.90;;;;;;4956913;28;20089;-95
2021/07/18 04:40:48;;;;;;;7.40;4.85;;;15.20;99.90;;;;;;4957083;28;20061;-94
2021/07/18 04:43:14;;;;;;;11.05;5.07;;;15.20;99.90;;;;;;4957163;29;20031;-95
2021/07/18 04:45:40;;;;;;;9.52;4.63;;;15.20;99.90;;;;;;4956951;28;20027;-95
2021/07/18 04:48:06;;;;;;;9.57;4.85;;;15.30;99.90;;;;;;4956920;28;20035;-95
2021/07/18 04:50:31;;;;;;;6.93;4.50;;;15.30;99.90;;;;;;4956844;28;20078;-96
2021/07/18 04:52:57;;;;;;;6.10;4.85;;;15.30;99.90;;;;;;4958003;29;20478;-96
2021/07/18 04:55:23;;;;;;;7.10;5.07;;;15.30;99.90;;;;;;4962243;28;20086;-96
2021/07/18 04:57:49;;;;;;;6.22;4.57;;;15.30;99.90;;;;;;4962095;28;20036;-94
2021/07/18 05:00:21;;;;;;;7.28;4.53;;;15.40;99.90;;;;;;4959206;28;20480;-94
2021/07/18 05:02:48;;;;;;;8.27;4.55;;;15.30;99.90;;;;;;4957430;28;20429;-94
2021/07/18 05:05:16;;;;;;;6.07;4.53;;;15.40;99.90;;;;;;4956818;29;20148;-95
2021/07/18 05:07:56;;;;;;;6.75;5.38;;;15.40;99.90;;;;;;4956105;28;20058;-95
2021/07/18 05:10:24;;;;;;;6.95;4.28;;;15.40;99.90;;;;;;4957236;28;20189;-94
2021/07/18 05:12:51;;;;;;;5.80;4.47;;;15.30;99.90;;;;;;4962565;29;20118;-95
2021/07/18 05:15:18;;;;;;;7.35;4.90;;;15.30;99.90;;;;;;4961084;28;20027;-95
2021/07/18 05:17:43;;;;;;;6.63;4.53;;;15.30;99.90;;;;;;4956656;28;20141;-95
2021/07/18 05:20:11;;;;;;;7.75;4.60;;;15.30;99.90;;;;;;4955667;28;20050;-94
2021/07/18 05:22:36;;;;;;;5.88;4.25;;;15.30;99.90;;;;;;4956149;28;20126;-95
2021/07/18 05:25:05;;;;;;;8.52;4.60;;;15.30;99.90;;;;;;4956116;28;20118;-95
2021/07/18 05:27:31;;;;;;;8.00;5.18;;;15.30;99.90;;;;;;4956411;28;20082;-95
2021/07/18 05:29:57;;;;;;;9.05;6.00;;;15.30;99.90;;;;;;4956744;29;20075;-95
2021/07/18 05:32:23;;;;;;;6.97;4.88;;;15.20;99.90;;;;;;4957835;28;20024;-95
2021/07/18 05:34:49;;;;;;;8.90;5.00;;;15.20;99.90;;;;;;4957983;28;20032;-94
2021/07/18 05:37:14;;;;;;;7.65;5.03;;;15.20;99.90;;;;;;4959765;28;20042;-93
2021/07/18 05:39:40;;;;;;;6.88;4.80;;;15.20;99.90;;;;;;4958582;28;20389;-95
2021/07/18 05:42:07;;;;;;;7.88;4.97;;;15.20;99.90;;;;;;4961272;28;20039;-95
2021/07/18 05:44:33;;;;;;;6.97;4.70;;;15.20;99.90;;;;;;4967052;28;20031;-95
2021/07/18 05:47:00;;;;;;;9.43;4.78;;;15.30;99.90;;;;;;4976928;28;20035;-95
2021/07/18 05:49:27;;;;;;;9.52;5.22;;;15.30;99.90;;;;;;4968651;28;20034;-96
2021/07/18 05:51:53;;;;;;;7.90;4.93;;;15.30;99.90;;;;;;4968193;28;20043;-95
2021/07/18 05:54:19;;;;;;;7.80;5.40;;;15.40;99.90;;;;;;4966812;29;20023;-95
2021/07/18 05:56:44;;;;;;;6.60;4.85;;;15.30;99.90;;;;;;4962534;28;20090;-95
2021/07/18 05:59:10;;;;;;;8.88;5.10;;;15.40;99.90;;;;;;4963005;28;20028;-95
2021/07/18 06:01:36;;;;;;;6.65;5.40;;;15.40;99.90;;;;;;4956571;29;20027;-95
2021/07/18 06:04:02;;;;;;;9.85;5.65;;;15.50;99.90;;;;;;4957014;28;20511;-95
2021/07/18 06:06:29;;;;;;;11.18;5.82;;;15.60;99.90;;;;;;4956468;28;20397;-95
2021/07/18 06:08:54;;;;;;;11.30;4.97;;;15.70;99.90;;;;;;4957149;28;20023;-95
2021/07/18 06:11:22;;;;;;;7.13;5.00;;;15.70;99.90;;;;;;4957951;29;20030;-95
2021/07/18 06:13:48;;;;;;;8.82;5.18;;;15.80;99.90;;;;;;4958197;28;20401;-95
2021/07/18 06:16:14;;;;;;;7.35;5.30;;;15.90;99.90;;;;;;4957880;28;20027;-95
2021/07/18 06:18:40;;;;;;;7.95;4.65;;;16.00;99.90;;;;;;4957862;28;20134;-96
2021/07/18 06:21:07;;;;;;;6.90;5.05;;;16.10;99.90;;;;;;4961635;28;20030;-95
2021/07/18 06:23:32;;;;;;;8.45;4.97;;;16.20;99.90;;;;;;4959967;28;20106;-95
2021/07/18 06:25:58;;;;;;;7.75;5.03;;;16.20;99.90;;;;;;4959650;28;20059;-95
2021/07/18 06:28:24;;;;;;;7.18;5.03;;;16.40;99.90;;;;;;4959689;28;20046;-95
2021/07/18 06:30:50;;;;;;;7.50;5.25;;;16.50;99.90;;;;;;4959877;28;20031;-95
2021/07/18 06:33:17;;;;;;;7.57;4.80;;;16.60;99.90;;;;;;4959591;28;20031;-95
2021/07/18 06:35:43;;;;;;;5.82;4.60;;;16.60;99.90;;;;;;4959532;28;20023;-95
2021/07/18 06:38:08;;;;;;;10.00;5.30;;;16.70;99.90;;;;;;4959457;28;20477;-95
2021/07/18 06:40:34;;;;;;;6.15;5.05;;;16.80;99.90;;;;;;4962104;28;20527;-94
2021/07/18 06:43:00;;;;;;;5.90;4.45;;;16.80;99.90;;;;;;4960075;28;20041;-95
2021/07/18 06:45:26;;;;;;;6.60;4.57;;;16.90;99.90;;;;;;4959822;28;20114;-95
2021/07/18 06:47:51;;;;;;;8.55;5.00;;;17.00;99.90;;;;;;4963339;28;20027;-94
2021/07/18 06:50:19;;;;;;;8.30;4.55;;;17.10;99.90;;;;;;4959793;28;20110;-95
2021/07/18 06:52:44;;;;;;;6.03;4.55;;;17.20;99.90;;;;;;4961313;29;20023;-95
2021/07/18 06:55:11;;;;;;;6.10;4.50;;;17.20;99.90;;;;;;4961766;28;20085;-95
2021/07/18 06:57:38;;;;;;;6.50;4.88;;;17.30;99.90;;;;;;4960768;28;20039;-95
2021/07/18 07:00:06;;;;;;;10.35;4.82;;;17.40;99.90;;;;;;4960439;28;20031;-94
2021/07/18 07:02:32;;;;;;;9.13;4.70;;;17.50;99.90;;;;;;4959802;28;20354;-95
2021/07/18 07:04:58;;;;;;;6.90;4.72;;;17.60;99.90;;;;;;4959223;28;20134;-95
2021/07/18 07:07:24;;;;;;;6.90;4.85;;;17.70;99.90;;;;;;4959780;28;20102;-94
2021/07/18 07:09:49;;;;;;;9.73;4.80;;;17.80;99.90;;;;;;4959684;28;20054;-95
2021/07/18 07:12:15;;;;;;;5.25;4.53;;;17.90;99.90;;;;;;4959330;28;20035;-95
2021/07/18 07:14:41;;;;;;;6.38;4.53;;;18.00;99.90;;;;;;4959381;29;20035;-95
2021/07/18 07:17:07;;;;;;;8.60;5.10;;;18.10;99.90;;;;;;4959344;28;20105;-95
2021/07/18 07:19:32;;;;;;;7.97;5.07;;;18.20;99.90;;;;;;4960227;28;20148;-95
2021/07/18 07:21:58;;;;;;;8.20;4.43;;;18.40;99.90;;;;;;4959184;28;20027;-95
2021/07/18 07:24:24;;;;;;;5.82;4.60;;;18.50;99.90;;;;;;4958853;28;20026;-95
2021/07/18 07:26:49;;;;;;;6.20;4.45;;;18.60;99.90;;;;;;4958518;28;20023;-95
2021/07/18 07:29:15;;;;;;;6.53;4.10;;;18.70;99.90;;;;;;4958750;28;20103;-94
2021/07/18 07:31:41;;;;;;;6.57;4.72;;;18.80;99.90;;;;;;4957539;28;20544;-95
2021/07/18 07:34:06;;;;;;;6.88;4.72;;;19.00;99.90;;;;;;4957960;28;20051;-95
2021/07/18 07:36:32;;;;;;;6.15;4.32;;;19.10;99.90;;;;;;4958076;28;20035;-95
2021/07/18 07:38:58;;;;;;;6.53;4.75;;;19.20;99.90;;;;;;4960142;28;20103;-95
2021/07/18 07:41:24;;;;;;;6.82;4.35;;;19.30;99.90;;;;;;4960046;28;20047;-95
2021/07/18 07:43:53;;;;;;;6.70;4.70;;;19.40;99.90;;;;;;4969393;28;20035;-95
2021/07/18 07:46:19;;;;;;;5.35;4.57;;;19.60;99.90;;;;;;4979934;28;20047;-96
2021/07/18 07:48:45;;;;;;;7.70;4.88;;;19.70;99.90;;;;;;4979866;28;20039;-96
2021/07/18 07:51:11;;;;;;;6.65;4.47;;;19.80;99.90;;;;;;4980360;28;20034;-95
2021/07/18 07:53:36;;;;;;;6.53;4.82;;;19.90;99.90;;;;;;4980236;28;20091;-95
2021/07/18 07:56:03;;;;;;;6.47;4.90;;;20.00;99.90;;;;;;4966224;28;20086;-95
2021/07/18 07:58:29;;;;;;;5.25;4.10;;;20.20;99.90;;;;;;4960018;29;20062;-95
2021/07/18 08:00:56;;;;;;;7.18;4.38;;;20.30;99.90;;;;;;4942877;29;20027;-96
2021/07/18 08:03:22;;;;;;;7.35;4.88;;;20.50;99.90;;;;;;4960823;28;20140;-95
2021/07/18 08:05:48;;;;;;;6.00;4.85;;;20.60;99.90;;;;;;4962197;28;20043;-95
2021/07/18 08:08:14;;;;;;;5.97;4.80;;;20.80;99.90;;;;;;4961483;28;20519;-96
2021/07/18 08:10:40;;;;;;;6.07;4.43;;;20.90;99.90;;;;;;4964336;28;20133;-96
2021/07/18 08:13:05;;;;;;;8.90;4.55;;;21.00;99.90;;;;;;4963982;28;20029;-96
2021/07/18 08:15:32;;;;;;;8.88;4.97;;;21.20;99.90;;;;;;4962223;28;20031;-96
2021/07/18 08:17:58;;;;;;;4.53;4.07;;;21.40;99.90;;;;;;4968159;28;20038;-95
2021/07/18 08:20:26;;;;;;;6.07;4.15;;;21.60;99.90;;;;;;4977563;28;20065;-95
2021/07/18 08:22:54;;;;;;;6.45;4.78;;;21.80;99.90;;;;;;4965366;28;20038;-96
2021/07/18 08:25:21;;;;;;;5.60;4.18;;;21.90;99.90;;;;;;4968485;28;20496;-95
2021/07/18 08:27:47;;;;;;;5.63;4.07;;;22.10;99.90;;;;;;4977369;28;20102;-95
2021/07/18 08:30:14;;;;;;;5.20;4.45;;;22.30;99.90;;;;;;4967349;28;20073;-96
2021/07/18 08:32:40;;;;;;;7.38;4.50;;;22.50;99.90;;;;;;4967347;28;20030;-96
2021/07/18 08:35:06;;;;;;;5.18;4.00;;;22.60;99.90;;;;;;4965673;28;20377;-96
2021/07/18 08:37:33;;;;;;;6.22;3.88;;;22.90;99.90;;;;;;4965223;28;20141;-95
2021/07/18 08:40:00;;;;;;;6.40;4.03;;;23.10;99.90;;;;;;4961968;28;20030;-96
2021/07/18 08:42:26;;;;;;;5.97;4.18;;;23.30;99.90;;;;;;4962634;28;20050;-95
2021/07/18 08:44:51;;;;;;;5.28;4.03;;;23.50;99.90;;;;;;4961647;28;20082;-95
2021/07/18 08:47:18;;;;;;;5.45;3.75;;;23.60;99.80;;;;;;4964094;28;20035;-96
2021/07/18 08:49:44;;;;;;;5.78;3.80;;;23.80;98.60;;;;;;4964717;28;20019;-96
2021/07/18 08:52:10;;;;;;;8.30;3.50;;;24.00;97.80;;;;;;4962614;28;20049;-96
2021/07/18 08:54:37;;;;;;;10.00;4.55;;;24.20;97.10;;;;;;4963157;28;20019;-95
2021/07/18 08:57:03;;;;;;;6.30;3.80;;;24.30;96.30;;;;;;4960820;28;20151;-95
2021/07/18 08:59:31;;;;;;;6.45;3.90;;;24.50;95.70;;;;;;4963073;28;20034;-96
2021/07/18 09:01:58;;;;;;;6.88;3.60;;;24.70;94.90;;;;;;4963096;28;20400;-96
2021/07/18 09:04:23;;;;;;;5.88;3.03;;;24.90;94.30;;;;;;4962086;28;20047;-95
2021/07/18 09:06:51;;;;;;;9.13;3.13;;;25.00;93.00;;;;;;4963692;28;20097;-96
2021/07/18 09:09:19;;;;;;;6.20;3.40;;;25.20;92.10;;;;;;4966835;28;20023;-95
2021/07/18 09:11:56;;;;;;;4.45;3.33;;;25.40;91.50;;;;;;4964556;28;20035;-96
2021/07/18 09:14:22;;;;;;;8.07;3.10;;;25.60;90.70;;;;;;4965644;28;20050;-96
2021/07/18 09:17:14;;;;;;;7.18;3.28;;;25.80;90.10;;;;;;4979864;28;20042;-96
2021/07/18 09:20:00;;;;;;;9.52;3.72;;;25.80;88.10;;;;;;4967528;28;20019;-95
2021/07/18 09:22:27;;;;;;;8.77;3.60;;;26.00;85.50;;;;;;4974871;28;20030;-96
2021/07/18 09:25:00;;;;;;;5.45;3.13;;;26.10;84.20;;;;;;4976924;28;20045;-95
2021/07/18 09:27:34;;;;;;;5.72;3.10;;;26.20;83.50;;;;;;4975334;28;20115;-95
2021/07/18 09:30:17;;;;;;;5.35;2.88;;;26.40;82.70;;;;;;4972265;28;20030;-96
2021/07/18 09:32:51;;;;;;;5.72;3.28;;;26.60;81.50;;;;;;4968007;28;20124;-95
2021/07/18 09:35:21;;;;;;;6.10;3.40;;;26.80;80.60;;;;;;4953712;28;20049;-95
2021/07/18 09:37:49;;;;;;;3.60;2.80;;;26.90;79.60;;;;;;4967592;28;20042;-96
2021/07/18 09:40:18;;;;;;;6.05;3.22;;;27.00;78.80;;;;;;4953434;28;20038;-96
2021/07/18 09:42:50;;;;;;;8.07;3.17;;;27.10;78.00;;;;;;4971011;28;20034;-96
2021/07/18 09:45:19;;;;;;;9.88;3.22;;;27.30;77.50;;;;;;4968057;28;20046;-94
2021/07/18 09:47:54;;;;;;;7.75;3.42;;;27.50;76.80;;;;;;4969274;28;20023;-96
2021/07/18 09:50:24;;;;;;;5.93;3.05;;;27.60;76.10;;;;;;4973550;28;20026;-95
2021/07/18 09:52:50;;;;;;;;;;;27.70;75.00;;;;;;4974398;28;20045;-96
2021/07/18 09:55:23;;;;;;;4.38;2.95;;;27.80;74.60;;;;;;4989503;28;20059;-96
2021/07/18 09:57:52;;;;;;;6.35;3.33;;;27.90;74.40;;;;;;4973736;28;20071;-96
2021/07/18 10:00:20;;;;;;;6.78;2.72;;;28.00;73.70;;;;;;4965712;28;20023;-96
2021/07/18 10:02:45;;;;;;;10.50;3.47;;;28.10;73.20;;;;;;4969264;28;20050;-96
2021/07/18 10:05:24;;;;;;;5.10;3.15;;;28.30;72.40;;;;;;4970520;28;20047;-96
2021/07/18 10:08:02;;;;;;;7.38;2.85;;;28.40;71.00;;;;;;4974767;28;20603;-96
2021/07/18 10:10:28;;;;;;;10.40;3.08;;;28.50;70.30;;;;;;4973234;28;20050;-96
2021/07/18 10:12:54;;;;;;;7.60;3.08;;;28.60;69.90;;;;;;4964473;28;20484;-95
2021/07/18 10:15:20;;;;;;;4.57;2.80;;;28.60;69.40;;;;;;4966813;28;20062;-95
2021/07/18 10:17:48;;;;;;;14.73;3.78;;;28.80;69.30;;;;;;4969934;28;20042;-96
2021/07/18 10:20:13;;;;;;;7.32;2.70;;;28.90;68.70;;;;;;4972059;28;20035;-96
2021/07/18 10:22:40;;;;;;;5.60;3.05;;;28.90;68.50;;;;;;4973217;28;20097;-96
2021/07/18 10:25:06;;;;;;;6.30;3.35;;;29.00;67.90;;;;;;4969499;28;20022;-96
2021/07/18 10:27:35;;;;;;;8.32;2.97;;;29.10;67.10;;;;;;4975074;28;20058;-95
2021/07/18 10:30:05;;;;;;;9.60;3.22;;;29.20;66.90;;;;;;4973513;28;20058;-96
2021/07/18 10:32:31;;;;;;;7.95;3.22;;;29.20;66.70;;;;;;4955110;28;20046;-96
2021/07/18 10:34:59;;;;;;;7.85;3.15;;;29.30;66.50;;;;;;4989594;28;20038;-96
2021/07/18 10:37:39;;;;;;;5.68;2.95;;;29.40;66.30;;;;;;4992891;28;20026;-96
2021/07/18 10:40:18;;;;;;;8.05;2.90;;;29.50;66.30;;;;;;4971281;28;20033;-96
2021/07/18 10:42:43;;;;;;;6.80;2.90;;;29.70;65.50;;;;;;4972232;28;20102;-96
2021/07/18 10:45:18;;;;;;;7.40;3.33;;;29.60;64.60;;;;;;4971307;28;20019;-93
2021/07/18 10:48:12;;;;;;;9.43;2.85;;;29.50;64.20;;;;;;4963453;28;20122;-95
2021/07/18 10:50:52;;;;;;;7.55;3.35;;;29.40;64.40;;;;;;4983608;28;20058;-96
2021/07/18 10:53:29;;;;;;;4.85;3.15;;;29.50;65.00;;;;;;4965689;28;20026;-96
2021/07/18 10:55:56;;;;;;;7.18;3.35;;;29.80;64.90;;;;;;4965696;28;20066;-96
2021/07/18 10:58:46;;;;;;;7.30;2.90;;;29.90;64.10;;;;;;4966511;28;20039;-96
2021/07/18 11:01:11;;;;;;;7.47;3.50;;;30.20;63.50;;;;;;4968165;28;20054;-95
2021/07/18 11:03:42;;;;;;;10.52;3.28;;;30.30;62.80;;;;;;4973469;28;20034;-96
2021/07/18 11:06:31;;;;;;;6.18;2.90;;;30.30;61.90;;;;;;4968612;28;20035;-96
2021/07/18 11:09:08;;;;;;;8.05;2.90;;;30.30;61.60;;;;;;4986935;28;20042;-96
2021/07/18 11:11:50;;;;;;;5.47;3.05;;;30.40;61.70;;;;;;4972895;28;20030;-96
2021/07/18 11:14:35;;;;;;;5.65;2.92;;;30.30;61.20;;;;;;4984118;28;20043;-95
2021/07/18 11:17:23;;;;;;;4.22;2.70;;;30.30;61.00;;;;;;4975041;28;20042;-96
2021/07/18 11:20:04;;;;;;;6.72;3.13;;;30.20;61.50;;;;;;4975339;28;20110;-96
2021/07/18 11:23:00;;;;;;;9.10;3.22;;;30.30;61.30;;;;;;4959911;28;20038;-96
2021/07/18 11:25:54;;;;;;;6.90;3.10;;;30.30;61.10;;;;;;4993653;28;20022;-95
2021/07/18 11:31:13;;;;;;;11.98;3.92;;;30.60;60.30;;;;;;5045201;23;20043;-95
2021/07/18 11:33:45;;;;;;;10.52;3.33;;;30.70;60.20;;;;;;5003598;28;20018;-94
2021/07/18 11:36:32;;;;;;;7.07;3.00;;;30.80;60.90;;;;;;5003094;28;20033;-95
2021/07/18 11:38:59;;;;;;;5.78;3.63;;;30.70;59.70;;;;;;5001398;28;20034;-94
2021/07/18 11:41:29;;;;;;;6.28;3.45;;;30.80;59.80;;;;;;4995352;28;20121;-94
2021/07/18 11:44:02;;;;;;;7.80;3.30;;;30.90;59.40;;;;;;4980309;28;20130;-96
2021/07/18 11:46:34;;;;;;;5.68;3.45;;;30.90;59.10;;;;;;4971400;28;20041;-94
2021/07/18 11:49:03;;;;;;;6.25;3.20;;;30.80;58.90;;;;;;4973479;28;20030;-96
2021/07/18 11:51:29;;;;;;;5.43;3.30;;;30.80;59.30;;;;;;4966790;28;20102;-95
2021/07/18 11:53:57;;;;;;;9.63;3.50;;;30.80;59.30;;;;;;4962452;28;20029;-95
2021/07/18 11:56:29;;;;;;;4.82;3.22;;;30.90;59.40;;;;;;4965198;28;20049;-95
2021/07/18 11:59:00;;;;;;;5.18;3.22;;;30.90;59.60;;;;;;4966629;28;20038;-96
2021/07/18 12:01:30;;;;;;;6.82;3.30;;;31.10;59.50;;;;;;4967756;28;20022;-95
2021/07/18 12:03:57;;;;;;;7.35;3.05;;;31.30;59.50;;;;;;4969190;28;20027;-95
2021/07/18 12:06:32;;;;;;;6.85;3.25;;;31.50;59.00;;;;;;4964942;28;20027;-96
2021/07/18 12:09:00;;;;;;;8.93;3.47;;;31.60;58.80;;;;;;4968019;28;20035;-96
2021/07/18 12:11:32;;;;;;;8.30;3.38;;;31.50;58.50;;;;;;4964291;28;20038;-96
2021/07/18 12:14:01;;;;;;;5.55;3.13;;;31.40;58.60;;;;;;4964714;28;20030;-96
2021/07/18 12:16:27;;;;;;;10.25;3.50;;;31.40;58.40;;;;;;4965396;28;20022;-96
2021/07/18 12:18:55;;;;;;;9.35;3.80;;;31.40;58.10;;;;;;4966199;28;20031;-95
2021/07/18 12:21:24;;;;;;;7.85;4.03;;;31.30;58.40;;;;;;4966458;28;20481;-96
2021/07/18 12:24:29;;;;;;;8.73;3.38;;;31.40;58.20;;;;;;4965243;28;20041;-95
2021/07/18 12:27:15;;;;;;;5.35;3.30;;;31.40;58.00;;;;;;4908466;29;20104;-95
2021/07/18 12:29:52;;;;;;;6.78;3.45;;;31.60;58.20;;;;;;4886016;29;20032;-95
2021/07/18 12:32:24;;;;;;;7.57;3.28;;;31.80;58.00;;;;;;4885919;29;20049;-96
2021/07/18 12:34:52;;;;;;;7.10;3.13;;;31.80;57.70;;;;;;4884826;29;20045;-96
2021/07/18 12:37:25;;;;;;;7.10;3.30;;;31.90;57.70;;;;;;4890846;29;20036;-96
2021/07/18 12:39:58;;;;;;;8.05;3.45;;;31.90;57.50;;;;;;4892293;29;20032;-96
2021/07/18 12:42:33;;;;;;;5.18;3.03;;;32.00;57.30;;;;;;4892369;29;20118;-95
2021/07/18 12:45:19;;;;;;;5.63;3.40;;;32.00;57.40;;;;;;4888736;29;20068;-95
2021/07/18 12:47:55;;;;;;;7.43;3.05;;;32.20;57.30;;;;;;4886341;29;20033;-94
2021/07/18 12:50:37;;;;;;;7.45;3.17;;;32.30;56.90;;;;;;4887903;29;20127;-95
2021/07/18 12:53:09;;;;;;;7.88;3.17;;;32.30;56.40;;;;;;4886772;29;20028;-95